sensor_id;sensor_type;location;lat;lon;timestamp;P1;durP1;ratioP1;P2;durP2;ratioP2
14191;SDS011;7177;48.572;7.838;2023-08-30T00:02:17;9.50;;;8.50;;
14191;SDS011;7177;48.572;7.838;2023-08-30T00:04:42;10.10;;;8.53;;
14191;SDS011;7177;48.572;7.838;2023-08-30T00:07:08;9.03;;;8.13;;
14191;SDS011;7177;48.572;7.838;2023-08-30T00:09:35;8.60;;;7.77;;
14191;SDS011;7177;48.572;7.838;2023-08-30T00:12:01;8.53;;;7.53;;
14191;SDS011;7177;48.572;7.838;2023-08-30T00:14:27;7.60;;;6.70;;
14191;SDS011;7177;48.572;7.838;2023-08-30T00:16:52;8.67;;;7.77;;
14191;SDS011;7177;48.572;7.838;2023-08-30T00:19:18;9.03;;;8.13;;
14191;SDS011;7177;48.572;7.838;2023-08-30T00:21:43;7.63;;;6.93;;
14191;SDS011;7177;48.572;7.838;2023-08-30T00:24:09;8.20;;;7.10;;
14191;SDS011;7177;48.572;7.838;2023-08-30T00:26:35;8.30;;;7.37;;
14191;SDS011;7177;48.572;7.838;2023-08-30T00:29:00;7.07;;;6.47;;
14191;SDS011;7177;48.572;7.838;2023-08-30T00:31:26;7.03;;;6.43;;
14191;SDS011;7177;48.572;7.838;2023-08-30T00:33:51;7.83;;;7.10;;
14191;SDS011;7177;48.572;7.838;2023-08-30T00:36:17;7.80;;;7.00;;
14191;SDS011;7177;48.572;7.838;2023-08-30T00:38:43;9.67;;;7.33;;
14191;SDS011;7177;48.572;7.838;2023-08-30T00:41:09;10.90;;;7.77;;
14191;SDS011;7177;48.572;7.838;2023-08-30T00:43:34;8.23;;;7.40;;
14191;SDS011;7177;48.572;7.838;2023-08-30T00:46:00;7.73;;;7.03;;
14191;SDS011;7177;48.572;7.838;2023-08-30T00:48:25;9.37;;;7.17;;
14191;SDS011;7177;48.572;7.838;2023-08-30T00:50:52;10.23;;;7.97;;
14191;SDS011;7177;48.572;7.838;2023-08-30T00:53:17;7.93;;;7.23;;
14191;SDS011;7177;48.572;7.838;2023-08-30T00:55:43;10.37;;;8.20;;
14191;SDS011;7177;48.572;7.838;2023-08-30T00:58:09;8.27;;;7.43;;
14191;SDS011;7177;48.572;7.838;2023-08-30T01:00:35;9.43;;;8.17;;
14191;SDS011;7177;48.572;7.838;2023-08-30T01:03:01;9.00;;;8.10;;
14191;SDS011;7177;48.572;7.838;2023-08-30T01:05:30;11.73;;;7.80;;
14191;SDS011;7177;48.572;7.838;2023-08-30T01:07:56;9.37;;;8.07;;
14191;SDS011;7177;48.572;7.838;2023-08-30T01:10:22;8.00;;;7.20;;
14191;SDS011;7177;48.572;7.838;2023-08-30T01:12:59;8.13;;;7.33;;
14191;SDS011;7177;48.572;7.838;2023-08-30T01:15:33;9.03;;;8.13;;
14191;SDS011;7177;48.572;7.838;2023-08-30T01:18:00;8.53;;;7.80;;
14191;SDS011;7177;48.572;7.838;2023-08-30T01:20:29;8.67;;;7.73;;
14191;SDS011;7177;48.572;7.838;2023-08-30T01:28:08;8.43;;;7.60;;
14191;SDS011;7177;48.572;7.838;2023-08-30T01:30:35;8.90;;;8.00;;
14191;SDS011;7177;48.572;7.838;2023-08-30T01:33:04;8.47;;;7.70;;
14191;SDS011;7177;48.572;7.838;2023-08-30T01:35:31;8.97;;;8.10;;
14191;SDS011;7177;48.572;7.838;2023-08-30T01:38:02;10.63;;;8.23;;
14191;SDS011;7177;48.572;7.838;2023-08-30T01:40:32;9.50;;;8.47;;
14191;SDS011;7177;48.572;7.838;2023-08-30T01:43:01;9.80;;;9.00;;
14191;SDS011;7177;48.572;7.838;2023-08-30T01:45:29;8.27;;;7.57;;
14191;SDS011;7177;48.572;7.838;2023-08-30T01:47:55;9.53;;;8.67;;
14191;SDS011;7177;48.572;7.838;2023-08-30T01:50:22;9.87;;;8.80;;
14191;SDS011;7177;48.572;7.838;2023-08-30T01:52:48;9.57;;;8.67;;
14191;SDS011;7177;48.572;7.838;2023-08-30T01:55:15;10.17;;;9.07;;
14191;SDS011;7177;48.572;7.838;2023-08-30T01:57:42;9.63;;;8.73;;
14191;SDS011;7177;48.572;7.838;2023-08-30T02:00:08;9.13;;;7.97;;
14191;SDS011;7177;48.572;7.838;2023-08-30T02:02:34;8.73;;;7.93;;
14191;SDS011;7177;48.572;7.838;2023-08-30T02:04:59;10.80;;;8.53;;
14191;SDS011;7177;48.572;7.838;2023-08-30T02:07:28;10.43;;;9.53;;
14191;SDS011;7177;48.572;7.838;2023-08-30T02:10:02;8.50;;;7.77;;
14191;SDS011;7177;48.572;7.838;2023-08-30T02:12:32;9.13;;;8.33;;
14191;SDS011;7177;48.572;7.838;2023-08-30T02:15:14;8.40;;;7.50;;
14191;SDS011;7177;48.572;7.838;2023-08-30T02:17:41;9.40;;;8.10;;
14191;SDS011;7177;48.572;7.838;2023-08-30T02:20:08;7.40;;;6.80;;
14191;SDS011;7177;48.572;7.838;2023-08-30T02:22:34;8.57;;;7.73;;
14191;SDS011;7177;48.572;7.838;2023-08-30T02:25:00;8.07;;;7.37;;
14191;SDS011;7177;48.572;7.838;2023-08-30T02:27:29;10.93;;;9.27;;
14191;SDS011;7177;48.572;7.838;2023-08-30T02:29:58;9.27;;;8.23;;
14191;SDS011;7177;48.572;7.838;2023-08-30T02:32:24;8.87;;;7.60;;
14191;SDS011;7177;48.572;7.838;2023-08-30T02:34:50;8.93;;;8.03;;
14191;SDS011;7177;48.572;7.838;2023-08-30T02:37:17;9.53;;;8.00;;
14191;SDS011;7177;48.572;7.838;2023-08-30T02:39:43;8.10;;;7.37;;
14191;SDS011;7177;48.572;7.838;2023-08-30T02:42:09;10.77;;;7.53;;
14191;SDS011;7177;48.572;7.838;2023-08-30T02:44:35;8.53;;;7.73;;
14191;SDS011;7177;48.572;7.838;2023-08-30T02:47:00;9.07;;;8.03;;
14191;SDS011;7177;48.572;7.838;2023-08-30T02:49:26;8.43;;;7.60;;
14191;SDS011;7177;48.572;7.838;2023-08-30T02:51:51;8.20;;;7.40;;
14191;SDS011;7177;48.572;7.838;2023-08-30T02:54:17;8.60;;;7.80;;
14191;SDS011;7177;48.572;7.838;2023-08-30T02:56:43;7.93;;;7.17;;
14191;SDS011;7177;48.572;7.838;2023-08-30T02:59:09;12.50;;;8.00;;
14191;SDS011;7177;48.572;7.838;2023-08-30T03:01:35;9.87;;;7.30;;
14191;SDS011;7177;48.572;7.838;2023-08-30T03:04:01;8.13;;;7.43;;
14191;SDS011;7177;48.572;7.838;2023-08-30T03:06:29;9.23;;;7.77;;
14191;SDS011;7177;48.572;7.838;2023-08-30T03:08:54;8.80;;;7.90;;
14191;SDS011;7177;48.572;7.838;2023-08-30T03:11:20;7.87;;;7.17;;
14191;SDS011;7177;48.572;7.838;2023-08-30T03:13:45;8.93;;;7.47;;
14191;SDS011;7177;48.572;7.838;2023-08-30T03:16:11;9.30;;;8.30;;
14191;SDS011;7177;48.572;7.838;2023-08-30T03:18:37;9.60;;;7.97;;
14191;SDS011;7177;48.572;7.838;2023-08-30T03:21:03;8.30;;;7.50;;
14191;SDS011;7177;48.572;7.838;2023-08-30T03:23:30;8.53;;;7.30;;
14191;SDS011;7177;48.572;7.838;2023-08-30T03:25:57;8.37;;;7.40;;
14191;SDS011;7177;48.572;7.838;2023-08-30T03:28:23;9.67;;;7.67;;
14191;SDS011;7177;48.572;7.838;2023-08-30T03:30:48;7.90;;;7.13;;
14191;SDS011;7177;48.572;7.838;2023-08-30T03:33:14;13.20;;;8.20;;
14191;SDS011;7177;48.572;7.838;2023-08-30T03:35:39;8.60;;;7.80;;
14191;SDS011;7177;48.572;7.838;2023-08-30T03:38:05;8.07;;;7.37;;
14191;SDS011;7177;48.572;7.838;2023-08-30T03:40:31;8.10;;;7.33;;
14191;SDS011;7177;48.572;7.838;2023-08-30T03:42:56;10.00;;;7.43;;
14191;SDS011;7177;48.572;7.838;2023-08-30T03:45:22;7.70;;;7.00;;
14191;SDS011;7177;48.572;7.838;2023-08-30T03:47:47;9.63;;;7.80;;
14191;SDS011;7177;48.572;7.838;2023-08-30T03:50:13;7.53;;;6.70;;
14191;SDS011;7177;48.572;7.838;2023-08-30T03:52:38;7.63;;;6.93;;
14191;SDS011;7177;48.572;7.838;2023-08-30T03:55:04;7.97;;;6.87;;
14191;SDS011;7177;48.572;7.838;2023-08-30T03:57:30;41.33;;;11.10;;
14191;SDS011;7177;48.572;7.838;2023-08-30T03:59:55;15.50;;;7.07;;
14191;SDS011;7177;48.572;7.838;2023-08-30T04:02:21;11.43;;;6.53;;
14191;SDS011;7177;48.572;7.838;2023-08-30T04:04:47;7.20;;;6.50;;
14191;SDS011;7177;48.572;7.838;2023-08-30T04:07:15;7.83;;;6.10;;
14191;SDS011;7177;48.572;7.838;2023-08-30T04:09:41;8.03;;;5.90;;
14191;SDS011;7177;48.572;7.838;2023-08-30T04:12:07;5.80;;;5.27;;
14191;SDS011;7177;48.572;7.838;2023-08-30T04:14:32;7.73;;;5.27;;
14191;SDS011;7177;48.572;7.838;2023-08-30T04:16:58;9.13;;;5.67;;
14191;SDS011;7177;48.572;7.838;2023-08-30T04:19:23;5.10;;;4.60;;
14191;SDS011;7177;48.572;7.838;2023-08-30T04:21:49;5.87;;;4.97;;
14191;SDS011;7177;48.572;7.838;2023-08-30T04:24:14;5.73;;;5.13;;
14191;SDS011;7177;48.572;7.838;2023-08-30T04:26:40;5.23;;;4.77;;
14191;SDS011;7177;48.572;7.838;2023-08-30T04:29:06;5.60;;;5.10;;
14191;SDS011;7177;48.572;7.838;2023-08-30T04:31:32;6.53;;;4.77;;
14191;SDS011;7177;48.572;7.838;2023-08-30T04:33:57;5.27;;;4.77;;
14191;SDS011;7177;48.572;7.838;2023-08-30T04:36:23;5.43;;;4.93;;
14191;SDS011;7177;48.572;7.838;2023-08-30T04:38:48;5.97;;;5.43;;
14191;SDS011;7177;48.572;7.838;2023-08-30T04:41:14;6.50;;;5.07;;
14191;SDS011;7177;48.572;7.838;2023-08-30T04:43:39;7.60;;;5.50;;
14191;SDS011;7177;48.572;7.838;2023-08-30T04:46:05;8.33;;;6.03;;
14191;SDS011;7177;48.572;7.838;2023-08-30T04:48:31;7.37;;;5.47;;
14191;SDS011;7177;48.572;7.838;2023-08-30T04:51:00;6.77;;;5.97;;
14191;SDS011;7177;48.572;7.838;2023-08-30T04:53:28;9.10;;;6.47;;
14191;SDS011;7177;48.572;7.838;2023-08-30T04:55:53;6.47;;;5.87;;
14191;SDS011;7177;48.572;7.838;2023-08-30T04:58:19;6.57;;;5.83;;
14191;SDS011;7177;48.572;7.838;2023-08-30T05:00:45;6.93;;;5.53;;
14191;SDS011;7177;48.572;7.838;2023-08-30T05:03:10;10.60;;;6.13;;
14191;SDS011;7177;48.572;7.838;2023-08-30T05:05:36;7.00;;;6.30;;
14191;SDS011;7177;48.572;7.838;2023-08-30T05:08:01;6.33;;;5.73;;
14191;SDS011;7177;48.572;7.838;2023-08-30T05:10:28;9.77;;;5.97;;
14191;SDS011;7177;48.572;7.838;2023-08-30T05:12:53;6.90;;;5.73;;
14191;SDS011;7177;48.572;7.838;2023-08-30T05:15:19;6.60;;;6.00;;
14191;SDS011;7177;48.572;7.838;2023-08-30T05:17:45;7.93;;;6.10;;
14191;SDS011;7177;48.572;7.838;2023-08-30T05:20:10;6.63;;;6.03;;
14191;SDS011;7177;48.572;7.838;2023-08-30T05:22:36;6.63;;;6.03;;
14191;SDS011;7177;48.572;7.838;2023-08-30T05:25:02;7.10;;;6.50;;
14191;SDS011;7177;48.572;7.838;2023-08-30T05:27:28;8.37;;;6.17;;
14191;SDS011;7177;48.572;7.838;2023-08-30T05:29:53;6.70;;;6.10;;
14191;SDS011;7177;48.572;7.838;2023-08-30T05:32:21;6.30;;;5.80;;
14191;SDS011;7177;48.572;7.838;2023-08-30T05:34:47;6.63;;;6.03;;
14191;SDS011;7177;48.572;7.838;2023-08-30T05:37:12;7.43;;;6.73;;
14191;SDS011;7177;48.572;7.838;2023-08-30T05:39:38;6.23;;;5.70;;
14191;SDS011;7177;48.572;7.838;2023-08-30T05:42:04;6.90;;;6.20;;
14191;SDS011;7177;48.572;7.838;2023-08-30T05:44:29;7.73;;;6.57;;
14191;SDS011;7177;48.572;7.838;2023-08-30T05:46:55;6.60;;;5.90;;
14191;SDS011;7177;48.572;7.838;2023-08-30T05:49:21;6.87;;;5.63;;
14191;SDS011;7177;48.572;7.838;2023-08-30T05:51:46;7.23;;;6.53;;
14191;SDS011;7177;48.572;7.838;2023-08-30T05:54:12;8.63;;;5.97;;
14191;SDS011;7177;48.572;7.838;2023-08-30T05:56:38;6.73;;;6.13;;
14191;SDS011;7177;48.572;7.838;2023-08-30T05:59:03;6.50;;;5.87;;
14191;SDS011;7177;48.572;7.838;2023-08-30T06:01:29;7.53;;;5.97;;
14191;SDS011;7177;48.572;7.838;2023-08-30T06:03:54;5.97;;;5.47;;
14191;SDS011;7177;48.572;7.838;2023-08-30T06:06:20;9.47;;;5.83;;
14191;SDS011;7177;48.572;7.838;2023-08-30T06:08:46;6.20;;;5.70;;
14191;SDS011;7177;48.572;7.838;2023-08-30T06:11:11;7.30;;;5.80;;
14191;SDS011;7177;48.572;7.838;2023-08-30T06:13:37;7.67;;;5.73;;
14191;SDS011;7177;48.572;7.838;2023-08-30T06:16:03;6.47;;;5.87;;
14191;SDS011;7177;48.572;7.838;2023-08-30T06:18:30;7.03;;;5.60;;
14191;SDS011;7177;48.572;7.838;2023-08-30T06:20:57;6.13;;;5.53;;
14191;SDS011;7177;48.572;7.838;2023-08-30T06:23:22;7.60;;;6.20;;
14191;SDS011;7177;48.572;7.838;2023-08-30T06:25:55;6.83;;;5.70;;
14191;SDS011;7177;48.572;7.838;2023-08-30T06:28:23;7.43;;;6.03;;
14191;SDS011;7177;48.572;7.838;2023-08-30T06:30:49;9.10;;;6.33;;
14191;SDS011;7177;48.572;7.838;2023-08-30T06:33:15;8.63;;;6.13;;
14191;SDS011;7177;48.572;7.838;2023-08-30T06:35:41;8.30;;;5.80;;
14191;SDS011;7177;48.572;7.838;2023-08-30T06:38:07;7.33;;;5.80;;
14191;SDS011;7177;48.572;7.838;2023-08-30T06:40:33;6.90;;;6.20;;
14191;SDS011;7177;48.572;7.838;2023-08-30T06:42:58;6.83;;;5.93;;
14191;SDS011;7177;48.572;7.838;2023-08-30T06:45:24;7.73;;;6.47;;
14191;SDS011;7177;48.572;7.838;2023-08-30T06:47:50;6.70;;;6.10;;
14191;SDS011;7177;48.572;7.838;2023-08-30T06:50:17;11.73;;;6.80;;
14191;SDS011;7177;48.572;7.838;2023-08-30T06:52:43;7.07;;;6.37;;
14191;SDS011;7177;48.572;7.838;2023-08-30T06:55:08;6.93;;;6.10;;
14191;SDS011;7177;48.572;7.838;2023-08-30T06:57:34;7.67;;;6.07;;
14191;SDS011;7177;48.572;7.838;2023-08-30T07:00:00;6.57;;;5.97;;
14191;SDS011;7177;48.572;7.838;2023-08-30T07:02:32;7.90;;;6.73;;
14191;SDS011;7177;48.572;7.838;2023-08-30T07:05:02;7.00;;;6.30;;
14191;SDS011;7177;48.572;7.838;2023-08-30T07:07:29;8.47;;;6.60;;
14191;SDS011;7177;48.572;7.838;2023-08-30T07:09:55;10.97;;;6.33;;
14191;SDS011;7177;48.572;7.838;2023-08-30T07:12:21;8.97;;;6.80;;
14191;SDS011;7177;48.572;7.838;2023-08-30T07:14:46;9.27;;;6.77;;
14191;SDS011;7177;48.572;7.838;2023-08-30T07:17:12;6.93;;;6.07;;
14191;SDS011;7177;48.572;7.838;2023-08-30T07:19:37;7.57;;;6.43;;
14191;SDS011;7177;48.572;7.838;2023-08-30T07:22:03;7.60;;;6.50;;
14191;SDS011;7177;48.572;7.838;2023-08-30T07:24:29;9.10;;;6.70;;
14191;SDS011;7177;48.572;7.838;2023-08-30T07:26:54;8.17;;;6.53;;
14191;SDS011;7177;48.572;7.838;2023-08-30T07:29:20;6.90;;;5.77;;
14191;SDS011;7177;48.572;7.838;2023-08-30T07:31:46;7.53;;;6.27;;
14191;SDS011;7177;48.572;7.838;2023-08-30T07:34:12;10.67;;;6.37;;
14191;SDS011;7177;48.572;7.838;2023-08-30T07:36:37;7.37;;;6.30;;
14191;SDS011;7177;48.572;7.838;2023-08-30T07:39:03;7.40;;;6.57;;
14191;SDS011;7177;48.572;7.838;2023-08-30T07:41:28;6.70;;;6.10;;
14191;SDS011;7177;48.572;7.838;2023-08-30T07:43:54;7.30;;;6.60;;
14191;SDS011;7177;48.572;7.838;2023-08-30T07:46:20;7.37;;;6.00;;
14191;SDS011;7177;48.572;7.838;2023-08-30T07:48:45;6.90;;;5.53;;
14191;SDS011;7177;48.572;7.838;2023-08-30T07:51:11;6.87;;;5.67;;
14191;SDS011;7177;48.572;7.838;2023-08-30T07:53:36;5.90;;;5.40;;
14191;SDS011;7177;48.572;7.838;2023-08-30T07:56:02;6.47;;;5.77;;
14191;SDS011;7177;48.572;7.838;2023-08-30T07:58:27;5.87;;;5.37;;
14191;SDS011;7177;48.572;7.838;2023-08-30T08:00:53;7.47;;;5.47;;
14191;SDS011;7177;48.572;7.838;2023-08-30T08:03:21;6.07;;;5.27;;
14191;SDS011;7177;48.572;7.838;2023-08-30T08:05:47;6.37;;;5.77;;
14191;SDS011;7177;48.572;7.838;2023-08-30T08:08:12;8.20;;;5.77;;
14191;SDS011;7177;48.572;7.838;2023-08-30T08:10:39;8.03;;;5.87;;
14191;SDS011;7177;48.572;7.838;2023-08-30T08:13:05;7.57;;;5.57;;
14191;SDS011;7177;48.572;7.838;2023-08-30T08:15:30;6.77;;;5.50;;
14191;SDS011;7177;48.572;7.838;2023-08-30T08:17:57;5.77;;;5.10;;
14191;SDS011;7177;48.572;7.838;2023-08-30T08:20:22;6.40;;;5.27;;
14191;SDS011;7177;48.572;7.838;2023-08-30T08:22:48;6.43;;;4.93;;
14191;SDS011;7177;48.572;7.838;2023-08-30T08:25:13;6.80;;;5.40;;
14191;SDS011;7177;48.572;7.838;2023-08-30T08:27:39;7.87;;;5.07;;
14191;SDS011;7177;48.572;7.838;2023-08-30T08:30:05;7.70;;;4.70;;
14191;SDS011;7177;48.572;7.838;2023-08-30T08:32:31;5.27;;;4.20;;
14191;SDS011;7177;48.572;7.838;2023-08-30T08:34:57;9.10;;;5.23;;
14191;SDS011;7177;48.572;7.838;2023-08-30T08:37:23;5.17;;;4.67;;
14191;SDS011;7177;48.572;7.838;2023-08-30T08:39:48;5.07;;;4.57;;
14191;SDS011;7177;48.572;7.838;2023-08-30T08:42:17;6.90;;;3.93;;
14191;SDS011;7177;48.572;7.838;2023-08-30T08:44:43;5.90;;;4.50;;
14191;SDS011;7177;48.572;7.838;2023-08-30T08:47:11;5.10;;;4.10;;
14191;SDS011;7177;48.572;7.838;2023-08-30T08:49:36;4.93;;;4.13;;
14191;SDS011;7177;48.572;7.838;2023-08-30T08:52:02;4.73;;;3.80;;
14191;SDS011;7177;48.572;7.838;2023-08-30T08:54:29;4.77;;;4.00;;
14191;SDS011;7177;48.572;7.838;2023-08-30T08:56:55;5.57;;;3.73;;
14191;SDS011;7177;48.572;7.838;2023-08-30T08:59:21;4.70;;;4.10;;
14191;SDS011;7177;48.572;7.838;2023-08-30T09:01:48;6.10;;;3.90;;
14191;SDS011;7177;48.572;7.838;2023-08-30T09:04:14;6.93;;;3.67;;
14191;SDS011;7177;48.572;7.838;2023-08-30T09:06:39;5.13;;;3.70;;
14191;SDS011;7177;48.572;7.838;2023-08-30T09:09:06;4.03;;;3.60;;
14191;SDS011;7177;48.572;7.838;2023-08-30T09:11:33;6.03;;;3.60;;
14191;SDS011;7177;48.572;7.838;2023-08-30T09:13:59;4.43;;;3.67;;
14191;SDS011;7177;48.572;7.838;2023-08-30T09:16:24;4.97;;;3.57;;
14191;SDS011;7177;48.572;7.838;2023-08-30T09:19:03;6.30;;;3.87;;
14191;SDS011;7177;48.572;7.838;2023-08-30T09:21:29;4.33;;;3.80;;
14191;SDS011;7177;48.572;7.838;2023-08-30T09:23:59;5.83;;;3.97;;
14191;SDS011;7177;48.572;7.838;2023-08-30T09:26:25;4.83;;;3.53;;
14191;SDS011;7177;48.572;7.838;2023-08-30T09:28:53;4.10;;;3.70;;
14191;SDS011;7177;48.572;7.838;2023-08-30T09:31:19;6.23;;;4.10;;
14191;SDS011;7177;48.572;7.838;2023-08-30T09:33:45;4.07;;;3.67;;
14191;SDS011;7177;48.572;7.838;2023-08-30T09:36:13;5.23;;;3.43;;
14191;SDS011;7177;48.572;7.838;2023-08-30T09:38:38;3.60;;;3.30;;
14191;SDS011;7177;48.572;7.838;2023-08-30T09:41:04;3.40;;;3.10;;
14191;SDS011;7177;48.572;7.838;2023-08-30T09:43:32;4.43;;;3.53;;
14191;SDS011;7177;48.572;7.838;2023-08-30T09:45:58;3.63;;;3.07;;
14191;SDS011;7177;48.572;7.838;2023-08-30T09:48:28;3.93;;;3.00;;
14191;SDS011;7177;48.572;7.838;2023-08-30T09:50:54;5.47;;;3.40;;
14191;SDS011;7177;48.572;7.838;2023-08-30T09:53:24;4.13;;;3.20;;
14191;SDS011;7177;48.572;7.838;2023-08-30T09:55:54;7.40;;;3.20;;
14191;SDS011;7177;48.572;7.838;2023-08-30T09:58:20;3.23;;;2.73;;
14191;SDS011;7177;48.572;7.838;2023-08-30T10:00:47;4.27;;;2.90;;
14191;SDS011;7177;48.572;7.838;2023-08-30T10:03:13;4.70;;;3.07;;
14191;SDS011;7177;48.572;7.838;2023-08-30T10:05:41;4.10;;;2.63;;
14191;SDS011;7177;48.572;7.838;2023-08-30T10:08:09;4.10;;;3.10;;
14191;SDS011;7177;48.572;7.838;2023-08-30T10:10:36;3.37;;;2.60;;
14191;SDS011;7177;48.572;7.838;2023-08-30T10:13:04;3.23;;;2.53;;
14191;SDS011;7177;48.572;7.838;2023-08-30T10:15:30;4.70;;;3.13;;
14191;SDS011;7177;48.572;7.838;2023-08-30T10:18:00;2.80;;;2.50;;
14191;SDS011;7177;48.572;7.838;2023-08-30T10:20:28;4.47;;;2.80;;
14191;SDS011;7177;48.572;7.838;2023-08-30T10:22:54;6.83;;;2.73;;
14191;SDS011;7177;48.572;7.838;2023-08-30T10:25:22;4.00;;;3.13;;
14191;SDS011;7177;48.572;7.838;2023-08-30T10:27:52;5.77;;;2.90;;
14191;SDS011;7177;48.572;7.838;2023-08-30T10:30:20;3.23;;;2.77;;
14191;SDS011;7177;48.572;7.838;2023-08-30T10:32:47;6.97;;;3.10;;
14191;SDS011;7177;48.572;7.838;2023-08-30T10:35:13;3.13;;;2.80;;
14191;SDS011;7177;48.572;7.838;2023-08-30T10:37:53;3.70;;;3.07;;
14191;SDS011;7177;48.572;7.838;2023-08-30T10:40:24;3.50;;;2.90;;
14191;SDS011;7177;48.572;7.838;2023-08-30T10:43:01;3.07;;;2.20;;
14191;SDS011;7177;48.572;7.838;2023-08-30T10:45:28;3.77;;;2.73;;
14191;SDS011;7177;48.572;7.838;2023-08-30T10:47:55;2.90;;;2.50;;
14191;SDS011;7177;48.572;7.838;2023-08-30T10:50:29;5.10;;;2.90;;
14191;SDS011;7177;48.572;7.838;2023-08-30T10:52:56;5.93;;;2.60;;
14191;SDS011;7177;48.572;7.838;2023-08-30T10:55:22;2.93;;;2.37;;
14191;SDS011;7177;48.572;7.838;2023-08-30T10:57:57;4.93;;;2.37;;
14191;SDS011;7177;48.572;7.838;2023-08-30T11:00:24;4.33;;;2.60;;
14191;SDS011;7177;48.572;7.838;2023-08-30T11:02:52;5.40;;;2.50;;
14191;SDS011;7177;48.572;7.838;2023-08-30T11:05:20;3.37;;;2.50;;
14191;SDS011;7177;48.572;7.838;2023-08-30T11:07:47;3.27;;;2.33;;
14191;SDS011;7177;48.572;7.838;2023-08-30T11:10:16;3.23;;;2.50;;
14191;SDS011;7177;48.572;7.838;2023-08-30T11:12:42;5.43;;;2.60;;
14191;SDS011;7177;48.572;7.838;2023-08-30T11:15:09;2.70;;;2.43;;
14191;SDS011;7177;48.572;7.838;2023-08-30T11:17:36;3.10;;;2.80;;
14191;SDS011;7177;48.572;7.838;2023-08-30T11:20:12;4.70;;;2.67;;
14191;SDS011;7177;48.572;7.838;2023-08-30T11:22:39;3.10;;;2.63;;
14191;SDS011;7177;48.572;7.838;2023-08-30T11:25:09;4.57;;;2.60;;
14191;SDS011;7177;48.572;7.838;2023-08-30T11:27:36;7.93;;;2.87;;
14191;SDS011;7177;48.572;7.838;2023-08-30T11:30:03;5.17;;;2.57;;
14191;SDS011;7177;48.572;7.838;2023-08-30T11:32:37;2.73;;;2.53;;
14191;SDS011;7177;48.572;7.838;2023-08-30T11:35:08;4.50;;;2.67;;
14191;SDS011;7177;48.572;7.838;2023-08-30T11:37:34;2.73;;;2.53;;
14191;SDS011;7177;48.572;7.838;2023-08-30T11:40:00;3.90;;;2.80;;
14191;SDS011;7177;48.572;7.838;2023-08-30T11:42:31;2.73;;;2.50;;
14191;SDS011;7177;48.572;7.838;2023-08-30T11:44:57;3.00;;;2.60;;
14191;SDS011;7177;48.572;7.838;2023-08-30T11:47:23;3.47;;;2.63;;
14191;SDS011;7177;48.572;7.838;2023-08-30T11:49:53;3.03;;;2.10;;
14191;SDS011;7177;48.572;7.838;2023-08-30T11:52:20;3.67;;;2.13;;
14191;SDS011;7177;48.572;7.838;2023-08-30T11:54:49;3.37;;;2.57;;
14191;SDS011;7177;48.572;7.838;2023-08-30T11:57:15;4.20;;;2.20;;
14191;SDS011;7177;48.572;7.838;2023-08-30T11:59:41;2.63;;;2.40;;
14191;SDS011;7177;48.572;7.838;2023-08-30T12:02:07;5.87;;;2.70;;
14191;SDS011;7177;48.572;7.838;2023-08-30T12:04:40;5.13;;;4.17;;
14191;SDS011;7177;48.572;7.838;2023-08-30T12:07:06;3.50;;;2.57;;
14191;SDS011;7177;48.572;7.838;2023-08-30T12:09:32;2.93;;;2.10;;
14191;SDS011;7177;48.572;7.838;2023-08-30T12:12:32;2.27;;;2.07;;
14191;SDS011;7177;48.572;7.838;2023-08-30T12:14:57;3.17;;;1.90;;
14191;SDS011;7177;48.572;7.838;2023-08-30T12:17:22;2.40;;;2.00;;
14191;SDS011;7177;48.572;7.838;2023-08-30T12:19:55;2.00;;;1.80;;
14191;SDS011;7177;48.572;7.838;2023-08-30T12:22:21;2.30;;;1.97;;
14191;SDS011;7177;48.572;7.838;2023-08-30T12:24:47;3.10;;;2.07;;
14191;SDS011;7177;48.572;7.838;2023-08-30T12:27:12;3.53;;;2.10;;
14191;SDS011;7177;48.572;7.838;2023-08-30T12:29:38;3.37;;;2.10;;
14191;SDS011;7177;48.572;7.838;2023-08-30T12:32:05;5.63;;;2.27;;
14191;SDS011;7177;48.572;7.838;2023-08-30T12:34:31;3.73;;;2.13;;
14191;SDS011;7177;48.572;7.838;2023-08-30T12:36:57;2.10;;;1.90;;
14191;SDS011;7177;48.572;7.838;2023-08-30T12:39:22;2.17;;;1.80;;
14191;SDS011;7177;48.572;7.838;2023-08-30T12:41:48;2.20;;;2.00;;
14191;SDS011;7177;48.572;7.838;2023-08-30T12:44:13;2.77;;;2.13;;
14191;SDS011;7177;48.572;7.838;2023-08-30T12:46:39;2.73;;;2.10;;
14191;SDS011;7177;48.572;7.838;2023-08-30T12:49:05;2.10;;;1.90;;
14191;SDS011;7177;48.572;7.838;2023-08-30T12:51:30;2.17;;;1.93;;
14191;SDS011;7177;48.572;7.838;2023-08-30T12:53:56;2.83;;;1.90;;
14191;SDS011;7177;48.572;7.838;2023-08-30T12:56:21;8.13;;;2.30;;
14191;SDS011;7177;48.572;7.838;2023-08-30T12:58:47;2.43;;;2.10;;
14191;SDS011;7177;48.572;7.838;2023-08-30T13:01:12;4.20;;;2.23;;
14191;SDS011;7177;48.572;7.838;2023-08-30T13:03:38;2.87;;;2.00;;
14191;SDS011;7177;48.572;7.838;2023-08-30T13:06:04;4.40;;;2.30;;
14191;SDS011;7177;48.572;7.838;2023-08-30T13:08:29;3.27;;;1.97;;
14191;SDS011;7177;48.572;7.838;2023-08-30T13:10:58;3.60;;;2.20;;
14191;SDS011;7177;48.572;7.838;2023-08-30T13:13:24;3.93;;;2.00;;
14191;SDS011;7177;48.572;7.838;2023-08-30T13:15:50;2.67;;;2.00;;
14191;SDS011;7177;48.572;7.838;2023-08-30T13:18:16;3.53;;;2.13;;
14191;SDS011;7177;48.572;7.838;2023-08-30T13:20:41;4.80;;;2.40;;
14191;SDS011;7177;48.572;7.838;2023-08-30T13:23:07;2.67;;;2.00;;
14191;SDS011;7177;48.572;7.838;2023-08-30T13:25:32;2.20;;;2.00;;
14191;SDS011;7177;48.572;7.838;2023-08-30T13:27:58;3.30;;;2.00;;
14191;SDS011;7177;48.572;7.838;2023-08-30T13:30:24;4.77;;;2.07;;
14191;SDS011;7177;48.572;7.838;2023-08-30T13:32:49;2.10;;;1.80;;
14191;SDS011;7177;48.572;7.838;2023-08-30T13:35:15;4.43;;;2.50;;
14191;SDS011;7177;48.572;7.838;2023-08-30T13:37:40;2.47;;;1.80;;
14191;SDS011;7177;48.572;7.838;2023-08-30T13:40:06;2.10;;;1.80;;
14191;SDS011;7177;48.572;7.838;2023-08-30T13:42:32;2.23;;;2.00;;
14191;SDS011;7177;48.572;7.838;2023-08-30T13:44:58;3.53;;;2.00;;
14191;SDS011;7177;48.572;7.838;2023-08-30T13:47:23;2.20;;;1.97;;
14191;SDS011;7177;48.572;7.838;2023-08-30T13:49:49;3.40;;;1.93;;
14191;SDS011;7177;48.572;7.838;2023-08-30T13:52:14;2.43;;;1.87;;
14191;SDS011;7177;48.572;7.838;2023-08-30T13:54:40;2.07;;;1.87;;
14191;SDS011;7177;48.572;7.838;2023-08-30T13:57:06;2.63;;;2.00;;
14191;SDS011;7177;48.572;7.838;2023-08-30T13:59:32;4.00;;;2.07;;
14191;SDS011;7177;48.572;7.838;2023-08-30T14:01:57;2.43;;;2.20;;
14191;SDS011;7177;48.572;7.838;2023-08-30T14:04:23;4.00;;;1.93;;
14191;SDS011;7177;48.572;7.838;2023-08-30T14:06:50;3.37;;;1.93;;
14191;SDS011;7177;48.572;7.838;2023-08-30T14:09:16;3.33;;;2.23;;
14191;SDS011;7177;48.572;7.838;2023-08-30T14:11:41;4.57;;;2.10;;
14191;SDS011;7177;48.572;7.838;2023-08-30T14:14:07;2.20;;;1.80;;
14191;SDS011;7177;48.572;7.838;2023-08-30T14:16:32;2.43;;;2.20;;
14191;SDS011;7177;48.572;7.838;2023-08-30T14:18:58;2.57;;;2.10;;
14191;SDS011;7177;48.572;7.838;2023-08-30T14:21:30;3.40;;;2.10;;
14191;SDS011;7177;48.572;7.838;2023-08-30T14:23:55;4.70;;;2.40;;
14191;SDS011;7177;48.572;7.838;2023-08-30T14:26:21;2.23;;;1.93;;
14191;SDS011;7177;48.572;7.838;2023-08-30T14:28:46;3.73;;;2.13;;
14191;SDS011;7177;48.572;7.838;2023-08-30T14:31:12;2.70;;;2.00;;
14191;SDS011;7177;48.572;7.838;2023-08-30T14:33:41;4.93;;;2.10;;
14191;SDS011;7177;48.572;7.838;2023-08-30T14:36:09;3.23;;;1.70;;
14191;SDS011;7177;48.572;7.838;2023-08-30T14:38:35;2.20;;;1.97;;
14191;SDS011;7177;48.572;7.838;2023-08-30T14:41:02;2.90;;;1.87;;
14191;SDS011;7177;48.572;7.838;2023-08-30T14:43:28;3.17;;;1.90;;
14191;SDS011;7177;48.572;7.838;2023-08-30T14:46:03;2.57;;;1.90;;
14191;SDS011;7177;48.572;7.838;2023-08-30T14:48:31;2.30;;;1.73;;
14191;SDS011;7177;48.572;7.838;2023-08-30T14:50:57;2.37;;;2.00;;
14191;SDS011;7177;48.572;7.838;2023-08-30T14:53:23;4.87;;;1.90;;
14191;SDS011;7177;48.572;7.838;2023-08-30T14:55:49;2.77;;;2.00;;
14191;SDS011;7177;48.572;7.838;2023-08-30T14:58:15;2.27;;;1.97;;
14191;SDS011;7177;48.572;7.838;2023-08-30T15:00:40;4.47;;;1.80;;
14191;SDS011;7177;48.572;7.838;2023-08-30T15:03:06;2.47;;;1.73;;